sensor_id;sensor_type;location;lat;lon;timestamp;pressure;altitude;pressure_sealevel;temperature;humidity
68634;BME280;55625;47.072;22.192;2024-02-23T00:01:06;98803.66;;;10.49;62.89
68634;BME280;55625;47.072;22.192;2024-02-23T00:03:33;98804.00;;;10.42;62.65
68634;BME280;55625;47.072;22.192;2024-02-23T00:06:01;98802.22;;;10.53;62.62
68634;BME280;55625;47.072;22.192;2024-02-23T00:08:27;98804.59;;;10.55;62.45
68634;BME280;55625;47.072;22.192;2024-02-23T00:10:53;98810.47;;;10.42;63.66
68634;BME280;55625;47.072;22.192;2024-02-23T00:13:19;98797.84;;;10.43;63.74
68634;BME280;55625;47.072;22.192;2024-02-23T00:15:45;98800.94;;;10.64;62.20
68634;BME280;55625;47.072;22.192;2024-02-23T00:18:11;98797.16;;;10.57;61.95
68634;BME280;55625;47.072;22.192;2024-02-23T00:20:38;98792.91;;;10.62;61.61
68634;BME280;55625;47.072;22.192;2024-02-23T00:23:04;98792.91;;;10.62;62.71
68634;BME280;55625;47.072;22.192;2024-02-23T00:25:30;98802.84;;;10.57;62.10
68634;BME280;55625;47.072;22.192;2024-02-23T00:27:56;98799.41;;;10.53;63.03
68634;BME280;55625;47.072;22.192;2024-02-23T00:30:22;98801.09;;;10.60;62.31
68634;BME280;55625;47.072;22.192;2024-02-23T00:32:48;98794.81;;;10.56;62.23
68634;BME280;55625;47.072;22.192;2024-02-23T00:35:14;98802.06;;;10.57;62.31
68634;BME280;55625;47.072;22.192;2024-02-23T00:37:40;98801.44;;;10.53;62.17
68634;BME280;55625;47.072;22.192;2024-02-23T00:40:07;98798.28;;;10.60;62.34
68634;BME280;55625;47.072;22.192;2024-02-23T00:42:34;98801.06;;;10.78;61.64
68634;BME280;55625;47.072;22.192;2024-02-23T00:45:00;98797.16;;;10.57;62.31
68634;BME280;55625;47.072;22.192;2024-02-23T00:47:27;98802.09;;;10.48;63.50
68634;BME280;55625;47.072;22.192;2024-02-23T00:49:53;98799.69;;;10.55;63.27
68634;BME280;55625;47.072;22.192;2024-02-23T00:52:19;98800.34;;;10.50;63.37
68634;BME280;55625;47.072;22.192;2024-02-23T00:54:45;98795.63;;;10.38;64.50
68634;BME280;55625;47.072;22.192;2024-02-23T00:57:11;98790.75;;;10.48;62.80
68634;BME280;55625;47.072;22.192;2024-02-23T00:59:37;98807.75;;;10.39;63.88
68634;BME280;55625;47.072;22.192;2024-02-23T01:02:03;98814.09;;;10.43;63.85
68634;BME280;55625;47.072;22.192;2024-02-23T01:04:33;98806.19;;;10.38;63.98
68634;BME280;55625;47.072;22.192;2024-02-23T01:07:01;98796.59;;;10.26;65.11
68634;BME280;55625;47.072;22.192;2024-02-23T01:09:27;98795.34;;;10.27;64.46
68634;BME280;55625;47.072;22.192;2024-02-23T01:11:53;98793.56;;;10.39;63.63
68634;BME280;55625;47.072;22.192;2024-02-23T01:14:19;98795.63;;;10.47;63.43
68634;BME280;55625;47.072;22.192;2024-02-23T01:16:45;98795.50;;;10.42;63.72
68634;BME280;55625;47.072;22.192;2024-02-23T01:19:11;98790.44;;;10.37;63.85
68634;BME280;55625;47.072;22.192;2024-02-23T01:21:37;98781.16;;;10.27;65.22
68634;BME280;55625;47.072;22.192;2024-02-23T01:24:03;98779.41;;;10.30;64.79
68634;BME280;55625;47.072;22.192;2024-02-23T01:26:30;98779.75;;;10.22;65.66
68634;BME280;55625;47.072;22.192;2024-02-23T01:28:56;98783.19;;;10.36;63.86
68634;BME280;55625;47.072;22.192;2024-02-23T01:31:22;98786.34;;;10.29;64.89
68634;BME280;55625;47.072;22.192;2024-02-23T01:33:48;98776.13;;;10.22;65.33
68634;BME280;55625;47.072;22.192;2024-02-23T01:36:16;98768.72;;;10.24;64.41
68634;BME280;55625;47.072;22.192;2024-02-23T01:38:41;98771.53;;;10.34;64.14
68634;BME280;55625;47.072;22.192;2024-02-23T01:41:08;98769.16;;;10.32;64.43
68634;BME280;55625;47.072;22.192;2024-02-23T01:43:34;98772.81;;;10.23;65.14
68634;BME280;55625;47.072;22.192;2024-02-23T01:46:00;98775.19;;;10.25;64.66
68634;BME280;55625;47.072;22.192;2024-02-23T01:48:27;98777.22;;;10.15;65.24
68634;BME280;55625;47.072;22.192;2024-02-23T01:50:53;98783.84;;;10.12;65.67
68634;BME280;55625;47.072;22.192;2024-02-23T01:53:20;98779.56;;;10.17;65.22
68634;BME280;55625;47.072;22.192;2024-02-23T01:55:47;98786.34;;;10.10;66.13
68634;BME280;55625;47.072;22.192;2024-02-23T01:58:14;98788.84;;;10.08;65.90
68634;BME280;55625;47.072;22.192;2024-02-23T02:00:40;98789.81;;;9.96;66.91
68634;BME280;55625;47.072;22.192;2024-02-23T02:03:06;98794.84;;;10.01;66.41
68634;BME280;55625;47.072;22.192;2024-02-23T02:05:36;98788.22;;;10.04;67.18
68634;BME280;55625;47.072;22.192;2024-02-23T02:08:03;98787.59;;;10.09;66.58
68634;BME280;55625;47.072;22.192;2024-02-23T02:10:29;98795.47;;;10.05;66.31
68634;BME280;55625;47.072;22.192;2024-02-23T02:13:01;98793.28;;;10.00;66.81
68634;BME280;55625;47.072;22.192;2024-02-23T02:15:27;98797.53;;;10.05;65.84
68634;BME280;55625;47.072;22.192;2024-02-23T02:17:53;98793.28;;;10.00;66.88
68634;BME280;55625;47.072;22.192;2024-02-23T02:20:24;98802.41;;;9.95;66.93
68634;BME280;55625;47.072;22.192;2024-02-23T02:22:52;98797.38;;;9.99;66.91
68634;BME280;55625;47.072;22.192;2024-02-23T02:25:18;98804.94;;;9.93;67.70
68634;BME280;55625;47.072;22.192;2024-02-23T02:27:44;98802.25;;;9.89;67.62
68634;BME280;55625;47.072;22.192;2024-02-23T02:30:12;98802.25;;;9.80;67.98
68634;BME280;55625;47.072;22.192;2024-02-23T02:32:38;98796.44;;;9.93;67.46
68634;BME280;55625;47.072;22.192;2024-02-23T02:35:05;98805.88;;;9.90;67.31
68634;BME280;55625;47.072;22.192;2024-02-23T02:37:31;98807.59;;;9.87;67.76
68634;BME280;55625;47.072;22.192;2024-02-23T02:39:57;98791.38;;;9.79;67.86
68634;BME280;55625;47.072;22.192;2024-02-23T02:42:22;98800.34;;;9.77;68.43
68634;BME280;55625;47.072;22.192;2024-02-23T02:44:48;98806.78;;;9.78;67.93
68634;BME280;55625;47.072;22.192;2024-02-23T02:47:14;98807.13;;;9.89;67.31
68634;BME280;55625;47.072;22.192;2024-02-23T02:49:40;98815.63;;;9.89;67.61
68634;BME280;55625;47.072;22.192;2024-02-23T02:52:06;98817.38;;;9.86;68.64
68634;BME280;55625;47.072;22.192;2024-02-23T02:54:34;98815.78;;;9.85;67.71
68634;BME280;55625;47.072;22.192;2024-02-23T02:57:00;98815.00;;;9.85;68.45
68634;BME280;55625;47.072;22.192;2024-02-23T02:59:26;98824.78;;;9.84;67.93
68634;BME280;55625;47.072;22.192;2024-02-23T03:01:52;98808.38;;;9.79;68.75
68634;BME280;55625;47.072;22.192;2024-02-23T03:04:18;98801.59;;;9.76;69.44
68634;BME280;55625;47.072;22.192;2024-02-23T03:06:44;98801.47;;;9.80;68.19
68634;BME280;55625;47.072;22.192;2024-02-23T03:09:10;98792.78;;;9.74;68.46
68634;BME280;55625;47.072;22.192;2024-02-23T03:11:36;98787.44;;;9.76;68.45
68634;BME280;55625;47.072;22.192;2024-02-23T03:14:03;98781.75;;;9.76;67.63
68634;BME280;55625;47.072;22.192;2024-02-23T03:16:29;98783.38;;;9.86;67.05
68634;BME280;55625;47.072;22.192;2024-02-23T03:18:56;98781.16;;;9.81;67.79
68634;BME280;55625;47.072;22.192;2024-02-23T03:21:22;98784.47;;;9.98;66.00
68634;BME280;55625;47.072;22.192;2024-02-23T03:23:48;98791.84;;;9.95;66.57
68634;BME280;55625;47.072;22.192;2024-02-23T03:26:14;98791.06;;;9.95;66.76
68634;BME280;55625;47.072;22.192;2024-02-23T03:28:43;98794.84;;;9.92;67.18
68634;BME280;55625;47.072;22.192;2024-02-23T03:31:09;98781.31;;;9.87;67.01
68634;BME280;55625;47.072;22.192;2024-02-23T03:33:34;98788.41;;;9.82;67.10
68634;BME280;55625;47.072;22.192;2024-02-23T03:36:00;98788.41;;;9.82;67.29
68634;BME280;55625;47.072;22.192;2024-02-23T03:38:26;98789.19;;;9.83;67.07
68634;BME280;55625;47.072;22.192;2024-02-23T03:40:52;98784.31;;;9.83;66.90
68634;BME280;55625;47.072;22.192;2024-02-23T03:43:19;98773.59;;;9.96;65.81
68634;BME280;55625;47.072;22.192;2024-02-23T03:45:45;98777.53;;;9.90;66.44
68634;BME280;55625;47.072;22.192;2024-02-23T03:48:11;98776.91;;;9.86;66.21
68634;BME280;55625;47.072;22.192;2024-02-23T03:50:37;98772.50;;;9.94;65.12
68634;BME280;55625;47.072;22.192;2024-02-23T03:53:03;98783.50;;;9.92;65.59
68634;BME280;55625;47.072;22.192;2024-02-23T03:55:29;98782.75;;;9.82;66.68
68634;BME280;55625;47.072;22.192;2024-02-23T03:57:55;98772.81;;;9.87;66.42
68634;BME280;55625;47.072;22.192;2024-02-23T04:00:21;98775.97;;;9.89;65.86
68634;BME280;55625;47.072;22.192;2024-02-23T04:02:49;98778.16;;;9.94;65.12
68634;BME280;55625;47.072;22.192;2024-02-23T04:05:15;98761.44;;;10.05;64.79
68634;BME280;55625;47.072;22.192;2024-02-23T04:07:41;98783.19;;;10.08;64.73
68634;BME280;55625;47.072;22.192;2024-02-23T04:10:08;98769.03;;;9.99;64.19
68634;BME280;55625;47.072;22.192;2024-02-23T04:12:34;98776.88;;;10.04;63.97
68634;BME280;55625;47.072;22.192;2024-02-23T04:15:00;98775.03;;;10.10;64.26
68634;BME280;55625;47.072;22.192;2024-02-23T04:17:26;98774.69;;;10.08;64.27
68634;BME280;55625;47.072;22.192;2024-02-23T04:19:52;98772.47;;;10.03;64.67
68634;BME280;55625;47.072;22.192;2024-02-23T04:22:17;98781.47;;;10.11;63.42
68634;BME280;55625;47.072;22.192;2024-02-23T04:24:43;98778.16;;;10.03;64.15
68634;BME280;55625;47.072;22.192;2024-02-23T04:27:09;98780.34;;;10.08;63.98
68634;BME280;55625;47.072;22.192;2024-02-23T04:29:35;98780.97;;;10.03;64.56
68634;BME280;55625;47.072;22.192;2024-02-23T04:32:02;98778.47;;;10.05;64.40
68634;BME280;55625;47.072;22.192;2024-02-23T04:34:28;98777.06;;;10.01;64.56
68634;BME280;55625;47.072;22.192;2024-02-23T04:36:54;98778.47;;;9.96;65.39
68634;BME280;55625;47.072;22.192;2024-02-23T04:39:21;98772.34;;;9.98;63.81
68634;BME280;55625;47.072;22.192;2024-02-23T04:41:47;98767.44;;;9.98;64.46
68634;BME280;55625;47.072;22.192;2024-02-23T04:44:13;98771.53;;;9.97;64.65
68634;BME280;55625;47.072;22.192;2024-02-23T04:46:39;98770.78;;;9.87;65.71
68634;BME280;55625;47.072;22.192;2024-02-23T04:49:05;98781.78;;;9.85;66.02
68634;BME280;55625;47.072;22.192;2024-02-23T04:51:31;98777.84;;;9.92;64.55
68634;BME280;55625;47.072;22.192;2024-02-23T04:53:57;98778.97;;;9.85;65.81
68634;BME280;55625;47.072;22.192;2024-02-23T04:56:23;98786.50;;;9.88;65.77
68634;BME280;55625;47.072;22.192;2024-02-23T04:58:49;98793.91;;;9.86;65.22
68634;BME280;55625;47.072;22.192;2024-02-23T05:01:15;98799.88;;;9.97;64.20
68634;BME280;55625;47.072;22.192;2024-02-23T05:03:41;98797.06;;;9.88;64.92
68634;BME280;55625;47.072;22.192;2024-02-23T05:06:07;98808.09;;;9.86;64.72
68634;BME280;55625;47.072;22.192;2024-02-23T05:08:33;98810.44;;;9.87;64.57
68634;BME280;55625;47.072;22.192;2024-02-23T05:10:59;98803.84;;;9.81;65.38
68634;BME280;55625;47.072;22.192;2024-02-23T05:13:25;98808.09;;;9.86;64.21
68634;BME280;55625;47.072;22.192;2024-02-23T05:15:54;98812.50;;;9.87;64.22
68634;BME280;55625;47.072;22.192;2024-02-23T05:18:20;98807.94;;;9.80;64.90
68634;BME280;55625;47.072;22.192;2024-02-23T05:20:47;98813.59;;;9.80;64.47
68634;BME280;55625;47.072;22.192;2024-02-23T05:23:14;98808.84;;;9.77;65.07
68634;BME280;55625;47.072;22.192;2024-02-23T05:25:42;98818.78;;;9.82;64.38
68634;BME280;55625;47.072;22.192;2024-02-23T05:28:08;98819.06;;;9.75;65.24
68634;BME280;55625;47.072;22.192;2024-02-23T05:30:34;98825.69;;;9.72;65.26
68634;BME280;55625;47.072;22.192;2024-02-23T05:33:00;98827.41;;;9.69;65.42
68634;BME280;55625;47.072;22.192;2024-02-23T05:35:29;98831.50;;;9.77;64.29
68634;BME280;55625;47.072;22.192;2024-02-23T05:37:55;98831.22;;;9.84;63.63
68634;BME280;55625;47.072;22.192;2024-02-23T05:40:21;98842.22;;;9.73;66.15
68634;BME280;55625;47.072;22.192;2024-02-23T05:42:47;98838.91;;;9.75;66.57
68634;BME280;55625;47.072;22.192;2024-02-23T05:45:13;98829.13;;;9.67;65.97
68634;BME280;55625;47.072;22.192;2024-02-23T05:47:39;98844.56;;;9.75;65.46
68634;BME280;55625;47.072;22.192;2024-02-23T05:50:08;98855.28;;;9.71;65.47
68634;BME280;55625;47.072;22.192;2024-02-23T05:52:37;98850.84;;;9.70;65.92
68634;BME280;55625;47.072;22.192;2024-02-23T05:55:05;98857.16;;;9.74;66.21
68634;BME280;55625;47.072;22.192;2024-02-23T05:57:31;98854.16;;;9.68;67.36
68634;BME280;55625;47.072;22.192;2024-02-23T05:59:57;98855.47;;;9.85;66.53
68634;BME280;55625;47.072;22.192;2024-02-23T06:02:23;98855.31;;;9.80;66.78
68634;BME280;55625;47.072;22.192;2024-02-23T06:04:49;98860.31;;;9.76;66.66
68634;BME280;55625;47.072;22.192;2024-02-23T06:07:15;98863.50;;;9.87;65.07
68634;BME280;55625;47.072;22.192;2024-02-23T06:09:45;98852.63;;;9.94;64.47
68634;BME280;55625;47.072;22.192;2024-02-23T06:12:10;98850.28;;;9.93;64.79
68634;BME280;55625;47.072;22.192;2024-02-23T06:14:37;98855.00;;;9.96;64.57
68634;BME280;55625;47.072;22.192;2024-02-23T06:17:03;98852.47;;;9.98;64.52
68634;BME280;55625;47.072;22.192;2024-02-23T06:19:29;98857.53;;;9.94;64.33
68634;BME280;55625;47.072;22.192;2024-02-23T06:21:55;98855.31;;;9.89;64.74
68634;BME280;55625;47.072;22.192;2024-02-23T06:24:21;98858.16;;;9.89;64.36
68634;BME280;55625;47.072;22.192;2024-02-23T06:26:47;98857.69;;;9.90;64.13
68634;BME280;55625;47.072;22.192;2024-02-23T06:29:15;98849.34;;;9.96;64.37
68634;BME280;55625;47.072;22.192;2024-02-23T06:31:41;98863.34;;;9.90;65.22
68634;BME280;55625;47.072;22.192;2024-02-23T06:34:08;98866.66;;;9.89;65.24
68634;BME280;55625;47.072;22.192;2024-02-23T06:36:34;98848.84;;;9.88;64.28
68634;BME280;55625;47.072;22.192;2024-02-23T06:39:00;98844.91;;;9.86;65.62
68634;BME280;55625;47.072;22.192;2024-02-23T06:41:25;98859.56;;;9.84;65.73
68634;BME280;55625;47.072;22.192;2024-02-23T06:43:52;98843.34;;;9.85;65.64
68634;BME280;55625;47.072;22.192;2024-02-23T06:46:19;98848.06;;;9.88;66.23
68634;BME280;55625;47.072;22.192;2024-02-23T06:48:48;98858.31;;;9.85;66.81
68634;BME280;55625;47.072;22.192;2024-02-23T06:51:14;98853.75;;;9.97;64.95
68634;BME280;55625;47.072;22.192;2024-02-23T06:53:41;98859.09;;;9.95;65.38
68634;BME280;55625;47.072;22.192;2024-02-23T06:56:07;98858.47;;;10.00;65.19
68634;BME280;55625;47.072;22.192;2024-02-23T06:58:34;98859.91;;;10.14;63.32
68634;BME280;55625;47.072;22.192;2024-02-23T07:01:00;98855.31;;;10.07;64.54
68634;BME280;55625;47.072;22.192;2024-02-23T07:03:26;98844.91;;;10.04;64.43
68634;BME280;55625;47.072;22.192;2024-02-23T07:05:52;98841.47;;;10.00;63.31
68634;BME280;55625;47.072;22.192;2024-02-23T07:08:18;98835.78;;;10.00;63.21
68634;BME280;55625;47.072;22.192;2024-02-23T07:10:44;98849.00;;;10.03;63.57
68634;BME280;55625;47.072;22.192;2024-02-23T07:13:10;98838.94;;;10.02;63.73
68634;BME280;55625;47.072;22.192;2024-02-23T07:15:36;98843.97;;;9.98;64.64
68634;BME280;55625;47.072;22.192;2024-02-23T07:18:03;98835.47;;;9.98;65.81
68634;BME280;55625;47.072;22.192;2024-02-23T07:20:29;98847.13;;;9.91;65.38
68634;BME280;55625;47.072;22.192;2024-02-23T07:22:55;98839.88;;;9.90;65.83
68634;BME280;55625;47.072;22.192;2024-02-23T07:25:22;98841.63;;;9.87;66.29
68634;BME280;55625;47.072;22.192;2024-02-23T07:27:48;98845.25;;;9.88;66.35
68634;BME280;55625;47.072;22.192;2024-02-23T07:30:15;98846.03;;;9.88;67.13
68634;BME280;55625;47.072;22.192;2024-02-23T07:32:44;98847.75;;;9.95;67.58
68634;BME280;55625;47.072;22.192;2024-02-23T07:35:12;98847.75;;;9.86;69.10
68634;BME280;55625;47.072;22.192;2024-02-23T07:37:38;98862.56;;;9.81;70.46
68634;BME280;55625;47.072;22.192;2024-02-23T07:40:05;98861.59;;;9.84;69.94
68634;BME280;55625;47.072;22.192;2024-02-23T07:42:32;98871.84;;;9.81;71.80
68634;BME280;55625;47.072;22.192;2024-02-23T07:44:58;98877.63;;;9.78;73.94
68634;BME280;55625;47.072;22.192;2024-02-23T07:47:24;98877.31;;;9.76;74.71
68634;BME280;55625;47.072;22.192;2024-02-23T07:49:52;98878.88;;;9.77;74.18
68634;BME280;55625;47.072;22.192;2024-02-23T07:52:19;98874.19;;;9.83;73.99
68634;BME280;55625;47.072;22.192;2024-02-23T07:54:45;98871.06;;;9.81;74.07
68634;BME280;55625;47.072;22.192;2024-02-23T07:57:11;98863.66;;;9.83;73.12
68634;BME280;55625;47.072;22.192;2024-02-23T07:59:37;98868.66;;;9.79;74.52
68634;BME280;55625;47.072;22.192;2024-02-23T08:02:03;98884.88;;;9.79;74.33
68634;BME280;55625;47.072;22.192;2024-02-23T08:04:29;98883.91;;;9.73;75.25
68634;BME280;55625;47.072;22.192;2024-02-23T08:06:55;98887.06;;;9.75;75.29
68634;BME280;55625;47.072;22.192;2024-02-23T08:09:21;98879.97;;;9.70;76.16
68634;BME280;55625;47.072;22.192;2024-02-23T08:11:48;98882.66;;;9.64;77.18
68634;BME280;55625;47.072;22.192;2024-02-23T08:14:15;98887.81;;;9.57;77.68
68634;BME280;55625;47.072;22.192;2024-02-23T08:16:41;98894.28;;;9.67;78.44
68634;BME280;55625;47.072;22.192;2024-02-23T08:19:06;98893.16;;;9.55;79.71
68634;BME280;55625;47.072;22.192;2024-02-23T08:21:34;98893.31;;;9.51;80.57
68634;BME280;55625;47.072;22.192;2024-02-23T08:23:59;98900.59;;;9.61;79.53
68634;BME280;55625;47.072;22.192;2024-02-23T08:26:25;98897.44;;;9.59;79.59
68634;BME280;55625;47.072;22.192;2024-02-23T08:28:51;98901.06;;;9.60;78.96
68634;BME280;55625;47.072;22.192;2024-02-23T08:31:17;98888.94;;;9.59;79.43
68634;BME280;55625;47.072;22.192;2024-02-23T08:33:43;98893.81;;;9.59;79.81
68634;BME280;55625;47.072;22.192;2024-02-23T08:36:10;98897.28;;;9.63;80.35
68634;BME280;55625;47.072;22.192;2024-02-23T08:38:36;98900.13;;;9.63;79.98
68634;BME280;55625;47.072;22.192;2024-02-23T08:41:03;98895.56;;;9.65;79.62
68634;BME280;55625;47.072;22.192;2024-02-23T08:43:29;98899.50;;;9.68;78.11
68634;BME280;55625;47.072;22.192;2024-02-23T08:45:55;98905.63;;;9.67;77.94
68634;BME280;55625;47.072;22.192;2024-02-23T08:48:21;98891.00;;;9.68;77.41
68634;BME280;55625;47.072;22.192;2024-02-23T08:50:47;98899.03;;;9.70;77.00
68634;BME280;55625;47.072;22.192;2024-02-23T08:53:12;98898.88;;;9.73;77.29
68634;BME280;55625;47.072;22.192;2024-02-23T08:55:38;98894.00;;;9.74;76.92
68634;BME280;55625;47.072;22.192;2024-02-23T08:58:04;98893.84;;;9.77;76.34
68634;BME280;55625;47.072;22.192;2024-02-23T09:00:32;98888.66;;;9.76;76.04
68634;BME280;55625;47.072;22.192;2024-02-23T09:02:58;98891.78;;;9.78;76.12
68634;BME280;55625;47.072;22.192;2024-02-23T09:05:24;98900.28;;;9.78;75.30
68634;BME280;55625;47.072;22.192;2024-02-23T09:07:50;98925.22;;;9.83;76.05
68634;BME280;55625;47.072;22.192;2024-02-23T09:10:16;98912.78;;;9.89;76.49
68634;BME280;55625;47.072;22.192;2024-02-23T09:12:43;98921.13;;;9.93;75.65
68634;BME280;55625;47.072;22.192;2024-02-23T09:15:09;98922.56;;;9.98;74.94
68634;BME280;55625;47.072;22.192;2024-02-23T09:17:36;98920.50;;;9.98;75.12
68634;BME280;55625;47.072;22.192;2024-02-23T09:20:03;98930.25;;;9.97;74.62
68634;BME280;55625;47.072;22.192;2024-02-23T09:22:30;98916.56;;;9.95;75.96
68634;BME280;55625;47.072;22.192;2024-02-23T09:24:57;98926.97;;;9.99;75.40
68634;BME280;55625;47.072;22.192;2024-02-23T09:27:25;98915.94;;;10.01;75.75
68634;BME280;55625;47.072;22.192;2024-02-23T09:29:53;98914.53;;;10.05;74.36
68634;BME280;55625;47.072;22.192;2024-02-23T09:32:20;98915.31;;;10.06;73.88
68634;BME280;55625;47.072;22.192;2024-02-23T09:34:47;98910.44;;;10.06;74.44
68634;BME280;55625;47.072;22.192;2024-02-23T09:37:14;98925.06;;;10.05;74.85
68634;BME280;55625;47.072;22.192;2024-02-23T09:39:40;98918.31;;;10.02;74.24
68634;BME280;55625;47.072;22.192;2024-02-23T09:42:11;98918.63;;;10.04;74.04
68634;BME280;55625;47.072;22.192;2024-02-23T09:44:38;98919.25;;;10.08;73.28
68634;BME280;55625;47.072;22.192;2024-02-23T09:47:06;98920.81;;;10.09;73.46
68634;BME280;55625;47.072;22.192;2024-02-23T09:49:41;98922.72;;;10.03;74.72
68634;BME280;55625;47.072;22.192;2024-02-23T09:52:11;98919.56;;;10.01;74.25
68634;BME280;55625;47.072;22.192;2024-02-23T09:54:38;98932.00;;;10.04;74.75
68634;BME280;55625;47.072;22.192;2024-02-23T09:57:08;98929.97;;;10.04;73.95
68634;BME280;55625;47.072;22.192;2024-02-23T09:59:36;98924.13;;;10.08;73.60
68634;BME280;55625;47.072;22.192;2024-02-23T10:02:08;98927.44;;;10.06;73.58
68634;BME280;55625;47.072;22.192;2024-02-23T10:04:41;98926.19;;;10.07;72.70
68634;BME280;55625;47.072;22.192;2024-02-23T10:07:15;98929.00;;;10.07;74.53
68634;BME280;55625;47.072;22.192;2024-02-23T10:09:45;98925.88;;;10.05;73.89
68634;BME280;55625;47.072;22.192;2024-02-23T10:12:12;98925.88;;;10.05;74.41
68634;BME280;55625;47.072;22.192;2024-02-23T10:14:41;98919.25;;;10.08;73.28
68634;BME280;55625;47.072;22.192;2024-02-23T10:17:08;98918.97;;;10.15;72.96
68634;BME280;55625;47.072;22.192;2024-02-23T10:19:37;98923.84;;;10.15;73.13
68634;BME280;55625;47.072;22.192;2024-02-23T10:22:06;98927.00;;;10.17;73.73
68634;BME280;55625;47.072;22.192;2024-02-23T10:24:33;98922.91;;;10.18;73.58
68634;BME280;55625;47.072;22.192;2024-02-23T10:27:00;98915.06;;;10.22;74.01
68634;BME280;55625;47.072;22.192;2024-02-23T10:29:28;98907.66;;;10.34;72.22
68634;BME280;55625;47.072;22.192;2024-02-23T10:31:57;98907.03;;;10.30;74.02
68634;BME280;55625;47.072;22.192;2024-02-23T10:34:24;98899.00;;;10.28;72.77
68634;BME280;55625;47.072;22.192;2024-02-23T10:36:53;98900.41;;;10.33;73.20
68634;BME280;55625;47.072;22.192;2024-02-23T10:39:19;98903.56;;;10.35;72.67
68634;BME280;55625;47.072;22.192;2024-02-23T10:42:09;98907.19;;;10.35;74.20
68634;BME280;55625;47.072;22.192;2024-02-23T10:44:37;98900.09;;;10.40;73.01
68634;BME280;55625;47.072;22.192;2024-02-23T10:47:05;98902.16;;;10.48;72.15
68634;BME280;55625;47.072;22.192;2024-02-23T10:49:31;98905.31;;;10.50;72.05
68634;BME280;55625;47.072;22.192;2024-02-23T10:51:59;98902.31;;;10.54;70.34
68634;BME280;55625;47.072;22.192;2024-02-23T10:54:26;98900.09;;;10.58;71.04
68634;BME280;55625;47.072;22.192;2024-02-23T10:56:52;98894.88;;;10.66;70.97
68634;BME280;55625;47.072;22.192;2024-02-23T10:59:21;98895.50;;;10.70;70.17
68634;BME280;55625;47.072;22.192;2024-02-23T11:01:53;98899.47;;;10.72;71.75
68634;BME280;55625;47.072;22.192;2024-02-23T11:04:20;98892.06;;;10.75;71.35
68634;BME280;55625;47.072;22.192;2024-02-23T11:06:55;98892.47;;;10.92;68.47
68634;BME280;55625;47.072;22.192;2024-02-23T11:09:24;98885.53;;;10.93;68.23
68634;BME280;55625;47.072;22.192;2024-02-23T11:11:58;98884.56;;;11.05;67.08
68634;BME280;55625;47.072;22.192;2024-02-23T11:14:37;98887.72;;;10.98;65.67
68634;BME280;55625;47.072;22.192;2024-02-23T11:17:04;98890.88;;;11.09;65.05
68634;BME280;55625;47.072;22.192;2024-02-23T11:19:39;98887.91;;;11.03;65.41
68634;BME280;55625;47.072;22.192;2024-02-23T11:22:09;98886.94;;;10.97;66.17
68634;BME280;55625;47.072;22.192;2024-02-23T11:24:41;98888.38;;;10.93;65.58
68634;BME280;55625;47.072;22.192;2024-02-23T11:27:14;98889.59;;;11.01;66.28
68634;BME280;55625;47.072;22.192;2024-02-23T11:29:42;98887.72;;;10.98;66.08
68634;BME280;55625;47.072;22.192;2024-02-23T11:32:16;98883.94;;;11.01;64.64
68634;BME280;55625;47.072;22.192;2024-02-23T11:34:56;98882.66;;;11.02;65.28
68634;BME280;55625;47.072;22.192;2024-02-23T11:37:28;98887.69;;;11.16;63.73
68634;BME280;55625;47.072;22.192;2024-02-23T11:39:55;98896.25;;;11.07;64.35
68634;BME280;55625;47.072;22.192;2024-02-23T11:42:23;98887.38;;;11.14;62.92
68634;BME280;55625;47.072;22.192;2024-02-23T11:44:50;98888.00;;;11.18;63.91
68634;BME280;55625;47.072;22.192;2024-02-23T11:47:19;98889.44;;;11.13;64.53
68634;BME280;55625;47.072;22.192;2024-02-23T11:49:45;98886.28;;;11.11;64.74
68634;BME280;55625;47.072;22.192;2024-02-23T11:52:11;98885.47;;;11.20;62.73
68634;BME280;55625;47.072;22.192;2024-02-23T11:54:37;98887.03;;;11.21;62.41
68634;BME280;55625;47.072;22.192;2024-02-23T11:57:04;98887.81;;;11.22;63.77
68634;BME280;55625;47.072;22.192;2024-02-23T11:59:30;98891.31;;;11.16;63.58
68634;BME280;55625;47.072;22.192;2024-02-23T12:01:56;98897.09;;;11.31;62.67
68634;BME280;55625;47.072;22.192;2024-02-23T12:04:22;98896.03;;;11.19;63.46
68634;BME280;55625;47.072;22.192;2024-02-23T12:06:49;98900.16;;;11.18;63.08
68634;BME280;55625;47.072;22.192;2024-02-23T12:09:15;98895.72;;;11.17;63.30
68634;BME280;55625;47.072;22.192;2024-02-23T12:11:41;98901.06;;;11.25;63.32
68634;BME280;55625;47.072;22.192;2024-02-23T12:14:07;98895.72;;;11.17;63.34
68634;BME280;55625;47.072;22.192;2024-02-23T12:16:35;98906.13;;;11.20;63.01
68634;BME280;55625;47.072;22.192;2024-02-23T12:19:02;98909.31;;;11.13;63.07
68634;BME280;55625;47.072;22.192;2024-02-23T12:21:34;98906.03;;;11.06;63.96
68634;BME280;55625;47.072;22.192;2024-02-23T12:24:07;98893.41;;;11.07;64.45
68634;BME280;55625;47.072;22.192;2024-02-23T12:26:33;98916.75;;;11.11;64.18
68634;BME280;55625;47.072;22.192;2024-02-23T12:29:03;98913.44;;;11.03;66.28
68634;BME280;55625;47.072;22.192;2024-02-23T12:31:32;98902.22;;;11.00;67.23
68634;BME280;55625;47.072;22.192;2024-02-23T12:33:58;98904.94;;;11.03;69.65
68634;BME280;55625;47.072;22.192;2024-02-23T12:36:24;98895.63;;;10.94;69.43
68634;BME280;55625;47.072;22.192;2024-02-23T12:38:50;98898.19;;;10.82;70.40
68634;BME280;55625;47.072;22.192;2024-02-23T12:41:16;98896.44;;;10.85;69.64
68634;BME280;55625;47.072;22.192;2024-02-23T12:43:42;98891.72;;;10.82;70.25
68634;BME280;55625;47.072;22.192;2024-02-23T12:46:08;98900.41;;;10.78;70.95
68634;BME280;55625;47.072;22.192;2024-02-23T12:48:35;98890.31;;;10.77;70.34
68634;BME280;55625;47.072;22.192;2024-02-23T12:51:01;98879.91;;;10.74;69.97
68634;BME280;55625;47.072;22.192;2024-02-23T12:53:41;98877.69;;;10.78;69.23